Time;durP1;ratioP1;P1;durP2;ratioP2;P2;SDS_P1;SDS_P2;PMS_P1;PMS_P2;Temp;Humidity;BMP_temperature;BMP_pressure;BME280_temperature;BME280_humidity;BME280_pressure;Samples;Min_cycle;Max_cycle;Signal;HPM_P1;HPM_P2
2023/10/10 00:01:46;;;;;;;13.35;3.95;;;15.70;99.90;;;;;;5022838;28;20426;-69
2023/10/10 00:04:19;;;;;;;19.65;4.47;;;15.70;99.90;;;;;;5040625;28;20037;-69
2023/10/10 00:06:51;;;;;;;10.38;3.75;;;15.70;99.90;;;;;;5022180;28;20056;-70
2023/10/10 00:09:23;;;;;;;15.05;4.80;;;15.70;99.90;;;;;;5021535;28;20104;-69
2023/10/10 00:11:51;;;;;;;9.23;3.70;;;15.80;99.90;;;;;;5037093;28;20045;-68
2023/10/10 00:14:27;;;;;;;11.97;4.57;;;15.80;99.90;;;;;;5047105;28;20132;-69
2023/10/10 00:16:59;;;;;;;11.15;4.07;;;15.80;99.90;;;;;;5037631;28;20501;-68
2023/10/10 00:19:43;;;;;;;13.85;6.07;;;15.90;99.90;;;;;;5033293;28;20056;-69
2023/10/10 00:22:17;;;;;;;13.23;4.50;;;16.00;99.90;;;;;;5032949;28;20033;-67
2023/10/10 00:24:49;;;;;;;17.67;5.50;;;16.00;99.90;;;;;;5031495;28;20496;-67
2023/10/10 00:27:23;;;;;;;13.23;4.82;;;16.00;99.90;;;;;;5034836;28;20048;-68
2023/10/10 00:29:55;;;;;;;12.20;3.40;;;16.00;99.90;;;;;;5027269;28;20049;-67
2023/10/10 00:32:29;;;;;;;20.17;6.03;;;16.00;99.90;;;;;;5025767;28;20421;-67
2023/10/10 00:34:56;;;;;;;17.33;4.35;;;15.90;99.90;;;;;;5037433;28;20047;-69
2023/10/10 00:37:34;;;;;;;14.02;4.72;;;15.90;99.90;;;;;;5034827;28;20048;-69
2023/10/10 00:40:09;;;;;;;14.73;4.45;;;15.80;99.90;;;;;;5035819;28;20076;-70
2023/10/10 00:42:41;;;;;;;14.20;4.72;;;15.70;99.90;;;;;;5041050;28;20045;-68
2023/10/10 00:45:14;;;;;;;10.98;3.63;;;15.70;99.90;;;;;;5051214;28;20053;-66
2023/10/10 00:47:48;;;;;;;16.33;4.45;;;15.60;99.90;;;;;;5020293;28;20394;-68
2023/10/10 00:50:25;;;;;;;15.10;4.18;;;15.50;99.90;;;;;;5034090;28;20049;-69
2023/10/10 00:52:56;;;;;;;11.80;3.72;;;15.50;99.90;;;;;;5025493;28;20132;-67
2023/10/10 00:55:33;;;;;;;14.43;5.85;;;15.40;99.90;;;;;;5028734;28;20045;-70
2023/10/10 00:58:07;;;;;;;12.75;4.72;;;15.30;99.90;;;;;;5035483;28;20409;-69
2023/10/10 01:00:44;;;;;;;18.42;4.65;;;15.30;99.90;;;;;;5036381;28;20048;-70
2023/10/10 01:03:22;;;;;;;15.75;4.88;;;15.20;99.90;;;;;;5036696;28;20060;-70
2023/10/10 01:05:55;;;;;;;10.70;4.05;;;15.10;99.90;;;;;;5019367;28;20055;-70
2023/10/10 01:08:30;;;;;;;11.98;4.75;;;15.00;99.90;;;;;;5036509;28;20045;-70
2023/10/10 01:11:03;;;;;;;11.40;4.07;;;14.90;99.90;;;;;;5022988;28;20044;-68
2023/10/10 01:13:35;;;;;;;11.95;3.80;;;14.80;99.90;;;;;;5036222;28;20050;-69
2023/10/10 01:16:08;;;;;;;15.10;4.68;;;14.80;99.90;;;;;;5039022;28;20053;-68
2023/10/10 01:18:51;;;;;;;14.07;5.53;;;14.70;99.90;;;;;;5035148;28;20671;-68
2023/10/10 01:21:37;;;;;;;14.65;4.20;;;14.70;99.90;;;;;;5019474;28;20056;-70
2023/10/10 01:24:12;;;;;;;10.77;4.45;;;14.60;99.90;;;;;;5030586;28;20488;-70
2023/10/10 01:26:45;;;;;;;9.23;4.57;;;14.50;99.90;;;;;;5027876;28;20041;-67
2023/10/10 01:29:25;;;;;;;12.18;3.97;;;14.50;99.90;;;;;;5035345;28;20064;-68
2023/10/10 01:31:58;;;;;;;12.65;4.75;;;14.40;99.90;;;;;;5019724;28;20049;-68
2023/10/10 01:34:32;;;;;;;19.75;5.82;;;14.30;99.90;;;;;;5035986;28;20060;-67
2023/10/10 01:37:14;;;;;;;10.32;4.10;;;14.20;99.90;;;;;;5035379;28;20523;-67
2023/10/10 01:40:15;;;;;;;10.88;4.07;;;14.10;99.90;;;;;;5025826;28;20523;-69
2023/10/10 01:42:59;;;;;;;16.17;5.53;;;14.10;99.90;;;;;;5028630;28;20064;-69
2023/10/10 01:45:29;;;;;;;15.50;4.45;;;14.10;99.90;;;;;;5033786;28;20063;-69
2023/10/10 01:48:08;;;;;;;13.43;4.03;;;14.10;99.90;;;;;;5033787;28;20149;-67
2023/10/10 01:50:34;;;;;;;13.50;5.38;;;14.00;99.90;;;;;;5036859;28;20087;-70
2023/10/10 01:53:05;;;;;;;15.00;4.43;;;14.00;99.90;;;;;;5032032;28;20133;-70
2023/10/10 01:55:38;;;;;;;11.10;4.45;;;14.00;99.90;;;;;;5028673;28;20048;-69
2023/10/10 01:58:10;;;;;;;11.68;4.30;;;14.10;99.90;;;;;;5037843;28;20490;-70
2023/10/10 02:00:46;;;;;;;12.40;5.45;;;14.10;99.90;;;;;;5043020;28;20047;-68
2023/10/10 02:03:13;;;;;;;16.05;5.57;;;14.10;99.90;;;;;;5041279;28;20136;-68
2023/10/10 02:05:45;;;;;;;12.77;4.63;;;14.20;99.90;;;;;;5038461;28;20041;-68
2023/10/10 02:08:17;;;;;;;16.02;4.65;;;14.20;99.90;;;;;;5019515;28;20034;-68
2023/10/10 02:10:49;;;;;;;17.45;5.15;;;14.20;99.90;;;;;;5043421;28;20120;-68
2023/10/10 02:13:17;;;;;;;12.82;5.10;;;14.20;99.90;;;;;;5036892;28;20569;-68
2023/10/10 02:15:51;;;;;;;9.25;4.03;;;14.20;99.90;;;;;;5039020;28;20033;-70
2023/10/10 02:18:37;;;;;;;13.57;4.68;;;14.20;99.90;;;;;;5022890;28;20033;-70
2023/10/10 02:21:15;;;;;;;15.25;5.32;;;14.20;99.90;;;;;;5040220;28;20045;-69
2023/10/10 02:23:53;;;;;;;14.35;4.88;;;14.10;99.90;;;;;;5044139;28;20053;-68
2023/10/10 02:26:51;;;;;;;14.70;4.30;;;14.10;99.90;;;;;;5038101;28;20068;-70
2023/10/10 02:29:21;;;;;;;11.60;4.90;;;14.10;99.90;;;;;;5039664;28;20049;-69
2023/10/10 02:32:10;;;;;;;9.52;4.28;;;14.10;99.90;;;;;;5024359;28;20068;-68
2023/10/10 02:34:44;;;;;;;14.73;4.43;;;14.00;99.90;;;;;;5040134;28;20049;-68
2023/10/10 02:40:14;;;;;;;20.27;5.40;;;14.00;99.90;;;;;;5030942;28;20118;-68
2023/10/10 02:43:16;;;;;;;15.20;4.65;;;14.00;99.90;;;;;;5033511;28;20417;-69
2023/10/10 02:45:45;;;;;;;12.68;4.47;;;14.00;99.90;;;;;;5038160;28;20401;-68
2023/10/10 02:48:20;;;;;;;16.60;4.53;;;14.00;99.90;;;;;;5040727;28;20119;-70
2023/10/10 02:50:51;;;;;;;12.15;4.63;;;14.00;99.90;;;;;;5034580;28;20034;-68
2023/10/10 02:53:19;;;;;;;14.35;6.03;;;14.00;99.90;;;;;;5035470;28;20044;-69
2023/10/10 02:55:51;;;;;;;12.73;5.88;;;13.90;99.90;;;;;;5029512;28;20099;-68
2023/10/10 02:58:28;;;;;;;13.98;5.45;;;13.90;99.90;;;;;;5037134;28;20041;-70
2023/10/10 03:00:59;;;;;;;11.63;4.88;;;13.80;99.90;;;;;;5036183;28;20055;-69
2023/10/10 03:03:30;;;;;;;16.60;4.82;;;13.80;99.90;;;;;;5018193;28;20076;-69
2023/10/10 03:06:06;;;;;;;15.73;4.57;;;13.70;99.90;;;;;;5033636;28;20037;-70
2023/10/10 03:08:51;;;;;;;12.27;5.03;;;13.70;99.90;;;;;;5027468;28;20406;-69
2023/10/10 03:11:35;;;;;;;10.85;4.82;;;13.70;99.90;;;;;;5031754;28;20152;-68
2023/10/10 03:14:08;;;;;;;16.42;6.47;;;13.60;99.90;;;;;;5038666;28;20100;-69
2023/10/10 03:16:45;;;;;;;12.32;5.28;;;13.60;99.90;;;;;;5022875;28;20050;-70
2023/10/10 03:19:26;;;;;;;20.42;7.10;;;13.50;99.90;;;;;;5025465;28;20048;-68
2023/10/10 03:22:22;;;;;;;17.10;6.40;;;13.50;99.90;;;;;;5044260;28;20045;-68
2023/10/10 03:25:22;;;;;;;12.50;5.55;;;13.40;99.90;;;;;;5047475;28;20425;-68
2023/10/10 03:27:49;;;;;;;14.52;6.22;;;13.30;99.90;;;;;;5032812;28;20037;-68
2023/10/10 03:30:50;;;;;;;17.58;6.82;;;13.30;99.90;;;;;;5035962;28;20120;-69
2023/10/10 05:25:41;;;;;;;15.63;5.50;;;12.50;99.90;;;;;;5036533;28;20041;-69
2023/10/10 05:28:13;;;;;;;14.88;6.25;;;12.50;99.90;;;;;;5036924;28;20064;-68
2023/10/10 05:30:45;;;;;;;12.75;5.13;;;12.60;99.90;;;;;;5040759;28;20041;-67
2023/10/10 05:33:19;;;;;;;13.17;5.97;;;12.60;99.90;;;;;;5036578;28;20056;-68
2023/10/10 05:35:59;;;;;;;12.10;5.45;;;12.50;99.90;;;;;;5039501;28;20284;-68
2023/10/10 05:38:31;;;;;;;17.00;5.65;;;12.50;99.90;;;;;;5034778;28;20133;-69
2023/10/10 05:41:06;;;;;;;14.73;5.38;;;12.50;99.90;;;;;;5037861;28;20042;-67
2023/10/10 05:43:34;;;;;;;23.60;6.45;;;12.40;99.90;;;;;;5036867;28;20048;-70
2023/10/10 05:46:05;;;;;;;14.32;6.20;;;12.40;99.90;;;;;;5035924;28;20088;-68
2023/10/10 05:48:37;;;;;;;19.23;5.68;;;12.40;99.90;;;;;;5036536;28;21188;-69
2023/10/10 05:51:10;;;;;;;17.92;5.78;;;12.40;99.90;;;;;;5036706;28;20045;-68
2023/10/10 05:53:42;;;;;;;17.07;6.10;;;12.40;99.90;;;;;;5039090;28;20517;-69
2023/10/10 05:56:15;;;;;;;13.60;5.68;;;12.30;99.90;;;;;;5040364;28;20045;-69
2023/10/10 05:58:47;;;;;;;20.13;6.30;;;12.30;99.90;;;;;;5045974;28;20136;-70
2023/10/10 06:01:19;;;;;;;16.70;5.68;;;12.30;99.90;;;;;;5038062;28;20505;-66
2023/10/10 06:03:51;;;;;;;10.90;4.55;;;12.30;99.90;;;;;;5023692;28;20045;-68
2023/10/10 06:06:24;;;;;;;16.70;5.03;;;12.30;99.90;;;;;;5039682;28;20091;-67
2023/10/10 06:09:00;;;;;;;15.90;5.57;;;12.40;99.90;;;;;;5039227;28;20040;-68
2023/10/10 06:11:34;;;;;;;10.77;4.70;;;12.40;99.90;;;;;;5038632;28;20048;-67
2023/10/10 06:14:04;;;;;;;14.85;4.88;;;12.40;99.90;;;;;;5038666;28;20033;-67
2023/10/10 06:16:32;;;;;;;15.32;5.20;;;12.40;99.90;;;;;;5040603;28;20040;-68
2023/10/10 06:19:04;;;;;;;17.23;5.37;;;12.40;99.90;;;;;;5039451;28;20065;-67
2023/10/10 06:21:36;;;;;;;14.13;5.03;;;12.40;99.90;;;;;;5036793;28;20041;-69
2023/10/10 06:24:08;;;;;;;17.83;5.63;;;12.40;99.90;;;;;;5039688;28;20790;-70
2023/10/10 06:26:45;;;;;;;13.00;5.22;;;12.40;99.90;;;;;;5036022;28;20124;-68
2023/10/10 06:29:18;;;;;;;14.73;5.28;;;12.40;99.90;;;;;;5027623;28;20515;-67
2023/10/10 06:31:45;;;;;;;11.02;4.95;;;12.50;99.90;;;;;;5035856;28;20438;-67
2023/10/10 06:34:22;;;;;;;14.50;4.90;;;12.50;99.90;;;;;;5032079;28;20038;-69
2023/10/10 06:36:50;;;;;;;13.45;4.53;;;12.60;99.90;;;;;;5038573;28;20069;-67
2023/10/10 06:41:50;;;;;;;14.77;5.72;;;12.70;99.90;;;;;;5034689;28;20045;-69
2023/10/10 06:44:39;;;;;;;8.13;5.15;;;12.70;99.90;;;;;;5035926;28;20045;-68
2023/10/10 06:47:11;;;;;;;10.73;5.13;;;12.80;99.90;;;;;;5041387;28;20048;-67
2023/10/10 06:49:46;;;;;;;19.05;7.50;;;12.80;99.90;;;;;;5039314;28;20075;-69
2023/10/10 06:52:19;;;;;;;10.07;5.65;;;12.90;99.90;;;;;;5040986;28;20144;-69
2023/10/10 06:54:53;;;;;;;16.65;6.22;;;12.90;99.90;;;;;;5043551;28;20049;-69
2023/10/10 06:57:35;;;;;;;11.88;5.72;;;13.00;99.90;;;;;;5037691;28;20052;-69
2023/10/10 07:00:21;;;;;;;16.58;5.68;;;13.00;99.90;;;;;;5036794;28;20045;-69
2023/10/10 07:02:50;;;;;;;11.00;5.10;;;13.10;99.90;;;;;;5034838;28;20144;-69
2023/10/10 07:05:33;;;;;;;17.05;5.35;;;13.20;99.90;;;;;;5042367;28;20041;-68
2023/10/10 07:11:02;;;;;;;20.50;5.45;;;13.30;99.90;;;;;;5028896;28;20137;-70
2023/10/10 07:13:35;;;;;;;14.40;5.00;;;13.40;99.90;;;;;;5035260;28;20493;-69
2023/10/10 07:16:08;;;;;;;17.10;6.45;;;13.50;99.90;;;;;;5025290;28;20084;-68
2023/10/10 07:18:40;;;;;;;18.08;4.72;;;13.60;99.90;;;;;;5038070;28;20049;-67
2023/10/10 07:21:30;;;;;;;16.08;5.55;;;13.60;99.90;;;;;;5041797;28;20054;-68
2023/10/10 07:24:05;;;;;;;12.40;4.78;;;13.70;99.90;;;;;;5037168;28;20619;-68
2023/10/10 07:26:43;;;;;;;14.00;4.45;;;13.80;99.90;;;;;;5034689;28;20052;-69
2023/10/10 07:32:16;;;;;;;19.33;7.30;;;13.90;99.90;;;;;;5041078;28;20124;-68
2023/10/10 07:34:50;;;;;;;21.15;9.23;;;14.00;99.90;;;;;;5019033;28;20055;-68
2023/10/10 07:37:23;;;;;;;20.35;8.73;;;14.10;99.90;;;;;;5033422;28;20096;-69
2023/10/10 07:39:55;;;;;;;23.08;8.32;;;14.20;99.90;;;;;;5039415;28;20048;-69
2023/10/10 07:42:29;;;;;;;31.90;10.10;;;14.30;99.90;;;;;;5037501;28;20041;-70
2023/10/10 07:45:13;;;;;;;20.88;9.30;;;14.40;99.90;;;;;;5043858;28;20036;-68
2023/10/10 07:50:46;;;;;;;21.42;9.38;;;14.50;99.90;;;;;;5040492;28;20088;-70
2023/10/10 07:53:14;;;;;;;23.58;8.68;;;14.60;99.90;;;;;;5042164;28;20098;-68
2023/10/10 07:58:43;;;;;;;;;;;14.80;99.90;;;;;;5036803;28;20049;-70
2023/10/10 08:01:11;;;;;;;20.90;8.90;;;14.90;99.90;;;;;;5035256;28;20202;-69
2023/10/10 08:03:44;;;;;;;20.77;10.82;;;15.00;99.90;;;;;;5031468;28;20056;-69
2023/10/10 08:06:17;;;;;;;26.17;11.13;;;15.10;99.90;;;;;;5043751;28;20129;-68
2023/10/10 08:11:38;;;;;;;29.70;13.32;;;15.30;99.90;;;;;;5039332;28;20120;-68
2023/10/10 08:14:11;;;;;;;22.98;11.25;;;15.40;99.90;;;;;;5033184;28;20098;-69
2023/10/10 08:16:43;;;;;;;21.93;10.90;;;15.50;99.90;;;;;;5044209;28;20045;-69
2023/10/10 08:19:15;;;;;;;20.58;9.95;;;15.60;99.90;;;;;;5029427;28;20056;-68
2023/10/10 08:21:50;;;;;;;25.20;11.80;;;15.80;99.90;;;;;;5029535;28;20054;-68
2023/10/10 08:24:22;;;;;;;25.98;10.23;;;15.90;99.90;;;;;;5036392;28;20128;-69
2023/10/10 08:26:51;;;;;;;20.98;8.68;;;16.00;99.90;;;;;;5047173;28;20117;-68
2023/10/10 08:29:27;;;;;;;23.92;10.18;;;16.10;99.90;;;;;;5038603;28;20040;-69
2023/10/10 08:31:58;;;;;;;17.23;8.50;;;16.30;99.90;;;;;;5035535;28;20037;-68
2023/10/10 08:34:31;;;;;;;21.20;10.60;;;16.40;99.90;;;;;;5033341;28;20405;-68
2023/10/10 08:37:03;;;;;;;18.63;8.20;;;16.50;99.90;;;;;;5030707;28;20484;-69
2023/10/10 08:39:36;;;;;;;13.55;6.32;;;16.60;99.90;;;;;;5033392;28;20430;-69
2023/10/10 08:42:14;;;;;;;16.50;6.35;;;16.80;99.90;;;;;;5034387;28;20045;-68
2023/10/10 08:44:48;;;;;;;17.80;5.00;;;16.90;99.90;;;;;;5044494;28;20073;-69
2023/10/10 08:47:31;;;;;;;20.65;7.40;;;17.10;99.90;;;;;;5042840;28;20044;-68
2023/10/10 08:50:00;;;;;;;13.95;6.07;;;17.30;99.90;;;;;;5037695;28;20497;-67
2023/10/10 08:52:33;;;;;;;17.13;4.75;;;17.60;99.90;;;;;;5038749;28;20050;-67
2023/10/10 08:55:01;;;;;;;13.13;4.88;;;17.70;99.90;;;;;;5037414;28;20059;-68
2023/10/10 08:57:30;;;;;;;18.25;5.10;;;17.80;99.90;;;;;;5036462;28;20128;-67
2023/10/10 08:59:57;;;;;;;16.88;4.78;;;17.90;99.90;;;;;;5037685;28;20071;-67
2023/10/10 09:02:23;;;;;;;16.05;4.43;;;18.00;99.90;;;;;;5036307;28;20490;-68
2023/10/10 09:04:56;;;;;;;12.10;4.35;;;18.10;99.90;;;;;;5034853;28;20045;-69
2023/10/10 09:07:30;;;;;;;12.23;5.38;;;18.20;99.90;;;;;;5032356;28;20041;-68
2023/10/10 09:10:05;;;;;;;20.02;5.22;;;18.40;99.90;;;;;;5038095;28;20531;-69
2023/10/10 09:12:52;;;;;;;18.13;6.57;;;18.50;99.90;;;;;;5045609;28;20052;-69
2023/10/10 09:15:25;;;;;;;14.63;4.75;;;18.60;99.90;;;;;;5036856;28;20045;-70
2023/10/10 09:17:59;;;;;;;16.05;5.40;;;18.70;99.90;;;;;;5032370;28;20044;-69
2023/10/10 09:20:32;;;;;;;14.80;4.57;;;18.80;99.90;;;;;;5038996;28;20260;-69
2023/10/10 09:23:11;;;;;;;12.93;4.82;;;18.90;99.90;;;;;;5036556;28;20498;-68
2023/10/10 09:25:48;;;;;;;16.38;4.50;;;18.90;99.90;;;;;;5040709;28;20686;-68
2023/10/10 09:28:20;;;;;;;15.63;4.80;;;19.00;99.90;;;;;;5042872;28;20041;-70
2023/10/10 09:31:03;;;;;;;13.60;4.78;;;19.10;99.90;;;;;;5030260;28;20061;-67
2023/10/10 09:33:35;;;;;;;13.18;4.78;;;19.20;99.90;;;;;;5042171;28;20041;-68
2023/10/10 09:36:15;;;;;;;13.27;5.47;;;19.30;99.90;;;;;;5037613;28;20120;-69
2023/10/10 09:38:46;;;;;;;15.68;5.40;;;19.40;99.90;;;;;;5025156;28;20129;-67
2023/10/10 09:49:44;;;;;;;14.43;4.43;;;19.90;99.90;;;;;;5038461;28;20220;-69
2023/10/10 10:09:17;;;;;;;21.00;5.32;;;20.50;99.90;;;;;;5048478;28;20041;-68
2023/10/10 10:12:08;;;;;;;16.77;6.68;;;20.50;99.90;;;;;;5048611;28;20039;-67
2023/10/10 10:14:53;;;;;;;17.10;4.68;;;20.60;99.90;;;;;;5047787;28;20068;-67
2023/10/10 10:17:49;;;;;;;23.85;5.85;;;20.70;99.90;;;;;;5050951;28;20128;-69
2023/10/10 10:20:37;;;;;;;13.55;4.10;;;20.90;99.90;;;;;;5046402;28;20042;-67
2023/10/10 10:23:45;;;;;;;19.42;4.60;;;20.90;99.90;;;;;;5041670;28;20133;-68
2023/10/10 10:26:31;;;;;;;15.45;5.38;;;20.90;99.90;;;;;;5031905;28;20527;-67
2023/10/10 10:29:15;;;;;;;14.20;4.97;;;21.00;99.90;;;;;;5040345;28;20052;-69
2023/10/10 10:31:49;;;;;;;16.52;3.97;;;21.00;99.90;;;;;;5040708;28;20069;-67
2023/10/10 10:34:31;;;;;;;19.90;5.82;;;21.10;99.90;;;;;;5035080;28;20483;-69
2023/10/10 10:37:06;;;;;;;16.67;4.82;;;21.20;99.90;;;;;;5033145;28;20508;-67
2023/10/10 10:40:09;;;;;;;13.57;5.22;;;21.30;99.90;;;;;;5040511;28;20046;-67
2023/10/10 10:42:28;;;;;;;16.27;4.72;;;21.40;99.90;;;;;;5042450;28;20464;-70
2023/10/10 10:44:58;;;;;;;16.38;4.28;;;21.50;99.90;;;;;;5035421;28;20041;-69
2023/10/10 10:47:39;;;;;;;22.02;5.22;;;21.60;99.90;;;;;;5038092;28;20072;-67
2023/10/10 10:50:29;;;;;;;11.07;4.25;;;21.80;99.90;;;;;;5036868;28;20111;-68
2023/10/10 10:53:08;;;;;;;16.13;5.25;;;21.80;99.90;;;;;;5033733;28;20523;-67
2023/10/10 10:55:52;;;;;;;14.23;4.75;;;21.80;99.90;;;;;;5041060;28;20549;-68
2023/10/10 10:58:26;;;;;;;;;;;21.70;99.90;;;;;;5041455;28;20037;-70
2023/10/10 11:03:37;;;;;;;17.50;4.95;;;21.80;99.90;;;;;;5041764;28;20072;-69
2023/10/10 11:06:10;;;;;;;14.68;5.65;;;21.90;99.90;;;;;;5036653;28;20116;-68
2023/10/10 11:16:46;;;;;;;20.95;6.53;;;22.00;99.90;;;;;;5035552;28;20049;-69
2023/10/10 11:21:55;;;;;;;17.73;5.40;;;22.10;99.90;;;;;;5037064;28;20040;-69
2023/10/10 11:24:31;;;;;;;19.50;4.80;;;22.20;99.90;;;;;;5043887;28;20056;-69
2023/10/10 11:29:45;;;;;;;12.40;4.68;;;22.10;99.90;;;;;;5035839;28;20895;-68
2023/10/10 11:32:24;;;;;;;15.90;5.13;;;22.30;99.90;;;;;;5038658;28;20033;-69
2023/10/10 11:35:22;;;;;;;13.98;4.75;;;22.40;99.90;;;;;;5032760;28;20096;-68
2023/10/10 11:38:16;;;;;;;14.40;4.18;;;22.40;99.90;;;;;;5036087;28;20045;-70
2023/10/10 11:40:52;;;;;;;16.45;5.05;;;22.50;99.90;;;;;;5038172;28;20049;-69
2023/10/10 11:43:27;;;;;;;13.95;4.22;;;22.40;99.90;;;;;;5035351;28;20411;-69
2023/10/10 11:45:54;;;;;;;13.20;4.25;;;22.40;99.90;;;;;;5030457;28;20048;-69
2023/10/10 11:48:28;;;;;;;11.13;4.70;;;22.60;99.90;;;;;;5021454;28;20045;-69
2023/10/10 11:50:59;;;;;;;15.45;4.43;;;22.70;99.90;;;;;;5039590;28;20064;-70
2023/10/10 11:53:29;;;;;;;17.75;5.55;;;22.70;99.90;;;;;;5032707;28;20072;-70
2023/10/10 11:56:04;;;;;;;15.00;4.25;;;22.70;99.90;;;;;;5034852;28;20041;-68
2023/10/10 11:58:36;;;;;;;16.75;4.80;;;22.60;99.90;;;;;;5037597;28;20053;-68
2023/10/10 12:01:10;;;;;;;14.77;4.57;;;22.60;99.90;;;;;;5039356;28;20056;-68
2023/10/10 12:03:42;;;;;;;19.85;5.05;;;22.60;99.90;;;;;;5024302;28;20513;-69
2023/10/10 12:06:44;;;;;;;17.98;4.80;;;22.60;99.90;;;;;;5037964;28;20497;-69
2023/10/10 12:09:03;;;;;;;18.52;4.00;;;22.70;99.90;;;;;;5031426;28;20152;-69
2023/10/10 12:11:38;;;;;;;13.65;5.68;;;22.80;99.90;;;;;;5035548;28;20033;-66
2023/10/10 12:14:18;;;;;;;15.65;3.80;;;22.70;99.90;;;;;;5039328;28;20082;-68
2023/10/10 12:16:57;;;;;;;14.57;5.22;;;22.70;99.90;;;;;;5025273;28;20522;-69
2023/10/10 12:19:36;;;;;;;23.92;4.18;;;22.80;99.90;;;;;;5035873;28;20037;-69
2023/10/10 12:22:10;;;;;;;18.60;4.30;;;22.90;99.90;;;;;;5033918;28;20068;-67
2023/10/10 12:24:39;;;;;;;15.52;4.55;;;22.90;99.90;;;;;;5026483;28;20041;-68
2023/10/10 12:27:12;;;;;;;17.02;4.63;;;23.00;99.90;;;;;;5044326;28;20045;-67
2023/10/10 12:29:41;;;;;;;17.45;5.18;;;23.00;99.90;;;;;;5032201;28;20128;-69
2023/10/10 12:32:18;;;;;;;12.10;4.00;;;23.10;99.90;;;;;;5034614;28;20088;-67
2023/10/10 12:34:50;;;;;;;14.35;4.78;;;23.10;99.90;;;;;;5035280;28;20049;-69
2023/10/10 12:37:23;;;;;;;15.25;4.88;;;23.10;99.90;;;;;;5035353;28;20054;-69
2023/10/10 12:39:52;;;;;;;11.18;3.65;;;23.10;99.90;;;;;;5034205;28;20041;-69
2023/10/10 12:42:19;;;;;;;15.60;4.60;;;23.20;99.90;;;;;;5031912;28;20073;-69
2023/10/10 12:44:53;;;;;;;20.83;4.97;;;23.30;99.90;;;;;;5036686;28;20046;-67
2023/10/10 12:47:26;;;;;;;16.65;4.25;;;23.30;99.90;;;;;;5038110;28;20144;-68
2023/10/10 12:50:13;;;;;;;16.63;4.05;;;23.30;99.90;;;;;;5038309;28;20040;-69
2023/10/10 12:52:57;;;;;;;19.13;4.57;;;23.30;99.90;;;;;;5044549;28;20060;-67
2023/10/10 12:55:29;;;;;;;13.07;3.90;;;23.30;99.90;;;;;;5036636;28;20041;-68
2023/10/10 12:58:09;;;;;;;19.88;4.22;;;23.30;99.90;;;;;;5036405;28;20041;-67
2023/10/10 13:00:36;;;;;;;18.60;5.53;;;23.30;99.90;;;;;;5042757;28;20131;-69
2023/10/10 13:03:08;;;;;;;12.88;4.22;;;23.30;99.90;;;;;;5037358;28;20029;-69
2023/10/10 13:05:40;;;;;;;17.60;4.65;;;23.30;99.90;;;;;;5035853;28;20152;-69
2023/10/10 13:08:06;;;;;;;14.43;3.75;;;23.20;99.90;;;;;;5036414;28;20041;-67
2023/10/10 13:10:39;;;;;;;15.32;5.68;;;23.10;99.90;;;;;;5033925;28;20037;-69
2023/10/10 13:13:26;;;;;;;19.15;4.63;;;23.10;99.90;;;;;;5037103;28;20513;-67
2023/10/10 13:16:21;;;;;;;13.90;3.88;;;23.10;99.90;;;;;;5035124;28;20044;-68
2023/10/10 13:18:55;;;;;;;17.45;3.90;;;23.10;99.90;;;;;;5037363;28;20048;-69
2023/10/10 13:21:27;;;;;;;20.75;4.88;;;23.10;99.90;;;;;;5040118;28;20504;-69
2023/10/10 13:23:59;;;;;;;15.52;4.38;;;23.20;99.90;;;;;;5035614;28;20039;-67
2023/10/10 13:26:27;;;;;;;13.77;4.15;;;23.30;99.90;;;;;;5035353;28;20095;-69
2023/10/10 13:29:01;;;;;;;22.67;4.85;;;23.30;99.90;;;;;;5036537;28;20796;-69
2023/10/10 13:31:33;;;;;;;15.98;4.30;;;23.30;99.90;;;;;;5035369;28;20513;-68
2023/10/10 13:34:05;;;;;;;15.02;4.03;;;23.40;99.90;;;;;;5035731;28;20041;-68
2023/10/10 13:36:32;;;;;;;16.58;4.78;;;23.40;99.90;;;;;;5035088;28;20463;-69
2023/10/10 13:39:09;;;;;;;17.63;4.85;;;23.40;99.90;;;;;;5035270;28;20055;-68
2023/10/10 13:41:41;;;;;;;12.10;4.15;;;23.40;99.90;;;;;;5018408;28;20049;-70
2023/10/10 13:44:18;;;;;;;19.35;4.90;;;23.50;99.90;;;;;;5042035;28;20037;-68
2023/10/10 13:46:46;;;;;;;11.50;4.03;;;23.60;99.90;;;;;;5032764;28;20144;-67
2023/10/10 13:49:13;;;;;;;17.17;4.25;;;23.60;99.90;;;;;;5037346;28;20138;-69
2023/10/10 13:51:45;;;;;;;18.58;5.47;;;23.70;99.90;;;;;;5038689;28;20044;-68
2023/10/10 13:54:19;;;;;;;14.00;4.40;;;23.70;99.90;;;;;;5036746;28;20167;-69
2023/10/10 13:56:46;;;;;;;14.73;5.10;;;23.70;99.90;;;;;;5039071;28;20053;-69
2023/10/10 13:59:19;;;;;;;12.85;4.10;;;23.70;99.90;;;;;;5032778;28;20056;-69
2023/10/10 14:01:47;;;;;;;17.98;5.38;;;23.60;99.90;;;;;;5037306;28;20049;-69
2023/10/10 14:04:27;;;;;;;15.35;4.53;;;23.70;99.90;;;;;;5037151;28;20695;-68
2023/10/10 14:07:00;;;;;;;14.93;4.60;;;23.80;99.90;;;;;;5037397;28;20350;-69
2023/10/10 14:09:32;;;;;;;16.35;4.55;;;23.80;99.90;;;;;;5033896;28;20059;-68
2023/10/10 14:12:06;;;;;;;11.73;4.80;;;23.80;99.90;;;;;;5039143;28;20041;-69
2023/10/10 14:14:44;;;;;;;23.67;5.30;;;23.70;99.90;;;;;;5036066;28;20514;-69
2023/10/10 14:17:16;;;;;;;14.43;4.68;;;23.70;99.90;;;;;;5037118;28;20051;-67
2023/10/10 14:19:51;;;;;;;14.10;4.45;;;23.70;99.90;;;;;;5046381;28;20045;-69
2023/10/10 14:22:22;;;;;;;13.07;4.43;;;23.80;99.90;;;;;;5033659;28;20065;-69
2023/10/10 14:24:54;;;;;;;16.35;5.43;;;23.80;99.90;;;;;;5035271;28;20038;-70
2023/10/10 14:27:26;;;;;;;16.60;4.47;;;23.70;99.90;;;;;;5042255;28;20075;-69
2023/10/10 14:30:02;;;;;;;16.67;4.57;;;23.70;99.90;;;;;;5039649;28;20041;-67
2023/10/10 14:32:41;;;;;;;18.35;5.55;;;23.60;99.90;;;;;;5040299;28;20037;-69
2023/10/10 14:35:12;;;;;;;16.48;4.95;;;23.60;99.90;;;;;;5042617;28;20125;-69
2023/10/10 14:37:46;;;;;;;14.55;4.50;;;23.60;99.90;;;;;;5038738;28;20128;-68
2023/10/10 14:40:18;;;;;;;11.15;4.45;;;23.60;99.90;;;;;;5043692;28;20042;-68
2023/10/10 14:42:54;;;;;;;13.98;4.65;;;23.50;99.90;;;;;;5035941;28;20057;-70
2023/10/10 14:45:28;;;;;;;17.38;4.47;;;23.50;99.90;;;;;;5035795;28;20524;-70
2023/10/10 14:48:05;;;;;;;15.35;5.35;;;23.40;99.90;;;;;;5045884;28;20047;-70
2023/10/10 14:50:38;;;;;;;17.92;5.50;;;23.40;99.90;;;;;;5035459;28;20041;-69
2023/10/10 14:53:08;;;;;;;19.48;6.07;;;23.40;99.90;;;;;;5041735;28;20051;-68
2023/10/10 14:55:40;;;;;;;15.18;5.40;;;23.30;99.90;;;;;;5047544;28;20049;-68
2023/10/10 14:58:13;;;;;;;12.10;5.00;;;23.20;99.90;;;;;;5037350;28;20049;-68
2023/10/10 15:00:45;;;;;;;13.90;5.03;;;23.20;99.90;;;;;;5038420;28;20094;-69
2023/10/10 15:03:15;;;;;;;12.95;5.75;;;23.20;99.90;;;;;;5039226;28;20044;-67
2023/10/10 15:05:51;;;;;;;14.05;4.63;;;23.20;99.90;;;;;;5036483;28;20085;-70
2023/10/10 15:08:23;;;;;;;15.43;4.97;;;23.10;99.90;;;;;;5040127;28;20045;-69
2023/10/10 15:10:55;;;;;;;18.83;4.20;;;23.00;99.90;;;;;;5042269;28;20812;-70
2023/10/10 15:13:28;;;;;;;17.20;5.40;;;22.90;99.90;;;;;;5039492;28;20049;-68
2023/10/10 15:15:56;;;;;;;16.45;4.72;;;22.90;99.90;;;;;;5037498;28;20131;-68
2023/10/10 15:18:28;;;;;;;15.05;4.65;;;22.90;99.90;;;;;;5031878;28;20053;-68
2023/10/10 15:21:00;;;;;;;12.40;4.63;;;22.90;99.90;;;;;;5039325;28;20049;-68
2023/10/10 15:23:32;;;;;;;18.55;5.22;;;22.80;99.90;;;;;;5041939;28;20053;-70
2023/10/10 15:26:11;;;;;;;16.35;4.82;;;22.80;99.90;;;;;;5039172;28;20045;-70
2023/10/10 15:28:44;;;;;;;19.17;4.45;;;22.60;99.90;;;;;;5038029;28;20037;-67
2023/10/10 15:31:16;;;;;;;12.40;4.17;;;22.50;99.90;;;;;;5040547;28;20040;-70
2023/10/10 15:33:48;;;;;;;12.60;4.90;;;22.30;99.90;;;;;;5035717;28;20046;-68
2023/10/10 15:36:18;;;;;;;16.13;5.18;;;22.10;99.90;;;;;;5038615;28;20120;-69
2023/10/10 15:38:50;;;;;;;19.60;6.55;;;21.90;99.90;;;;;;5037529;28;20041;-69
2023/10/10 15:41:23;;;;;;;10.95;4.65;;;21.70;99.90;;;;;;5034035;28;20052;-69
2023/10/10 15:43:55;;;;;;;;;;;21.50;99.90;;;;;;5036331;28;20045;-69
2023/10/10 15:46:27;;;;;;;11.73;4.40;;;21.30;99.90;;;;;;5037004;28;19921;-69
2023/10/10 15:48:55;;;;;;;13.45;5.05;;;21.10;99.90;;;;;;5037002;28;20056;-68
2023/10/10 15:51:22;;;;;;;12.45;4.50;;;21.10;99.90;;;;;;5039174;28;20057;-67
2023/10/10 15:54:02;;;;;;;20.92;5.45;;;21.00;99.90;;;;;;5036356;28;20123;-66
2023/10/10 15:56:35;;;;;;;19.35;4.72;;;20.90;99.90;;;;;;5039631;28;20064;-68
2023/10/10 15:59:07;;;;;;;14.48;4.20;;;20.70;99.90;;;;;;5023215;28;20072;-68
2023/10/10 16:01:43;;;;;;;17.15;4.70;;;20.60;99.90;;;;;;5039849;28;20049;-69
2023/10/10 16:04:13;;;;;;;12.50;4.47;;;20.50;99.90;;;;;;5040323;28;20053;-69
2023/10/10 16:06:50;;;;;;;13.25;4.72;;;20.40;99.90;;;;;;5036343;28;20049;-68
2023/10/10 16:09:29;;;;;;;25.70;6.47;;;20.20;99.90;;;;;;5033734;28;20079;-68
2023/10/10 16:12:07;;;;;;;11.02;4.22;;;20.20;99.90;;;;;;5037306;28;20410;-68